createdAt,value
2018-12-25T00:00:26.041Z,85.87
2018-12-25T00:02:55.814Z,86.08
2018-12-25T00:05:25.420Z,85.85
2018-12-25T00:07:55.254Z,85.73
2018-12-25T00:10:24.914Z,85.53
2018-12-25T00:12:58.993Z,85.62
2018-12-25T00:15:28.677Z,85.48
2018-12-25T00:17:58.454Z,85.48
2018-12-25T00:20:28.185Z,85.73
2018-12-25T00:22:57.630Z,85.44
2018-12-25T00:30:51.296Z,85.81
2018-12-25T00:36:04.737Z,85.90
2018-12-25T00:38:45.911Z,85.83
2018-12-25T00:41:26.669Z,85.92
2018-12-25T00:43:58.556Z,85.92
2018-12-25T00:46:28.537Z,85.76
2018-12-25T00:49:17.112Z,85.66
2018-12-25T00:51:57.965Z,85.66
2018-12-25T00:54:38.791Z,85.88
2018-12-25T00:57:19.573Z,85.91
2018-12-25T01:00:00.720Z,85.89
2018-12-25T01:02:30.484Z,85.89
2018-12-25T01:05:02.778Z,85.84
2018-12-25T01:07:33.026Z,85.83
2018-12-25T01:10:21.373Z,85.83
2018-12-25T01:12:50.845Z,86.00
2018-12-25T01:15:25.869Z,85.86
2018-12-25T01:17:56.674Z,86.18
2018-12-25T01:20:26.234Z,86.15
2018-12-25T01:22:55.660Z,86.61
2018-12-25T01:25:25.579Z,86.67
2018-12-25T01:27:55.260Z,86.92
2018-12-25T01:30:24.812Z,86.69
2018-12-25T01:33:13.299Z,86.53
2018-12-25T01:36:01.891Z,86.53
2018-12-25T01:38:32.303Z,86.78
2018-12-25T01:43:50.211Z,86.67
2018-12-25T01:46:19.692Z,86.72
2018-12-25T01:48:49.164Z,86.75
2018-12-25T01:51:37.755Z,87.05
2018-12-25T01:54:18.898Z,86.77
2018-12-25T01:56:48.402Z,86.77
2018-12-25T01:59:36.788Z,86.96
2018-12-25T02:02:06.934Z,86.87
2018-12-25T02:04:36.525Z,86.96
2018-12-25T02:10:00.552Z,87.13
2018-12-25T02:12:30.072Z,87.18
2018-12-25T02:14:59.582Z,87.21
2018-12-25T02:17:29.087Z,87.33
2018-12-25T02:19:58.531Z,87.43
2018-12-25T02:22:27.945Z,87.83
2018-12-25T02:24:57.400Z,87.94
2018-12-25T02:27:27.179Z,88.04
2018-12-25T02:29:56.609Z,88.11
2018-12-25T02:32:26.030Z,87.89
2018-12-25T02:34:55.653Z,87.65
2018-12-25T02:37:25.232Z,87.64
2018-12-25T02:42:43.327Z,87.32
2018-12-25T02:45:12.759Z,87.06
2018-12-25T02:47:42.622Z,86.88
2018-12-25T02:50:12.049Z,86.69
2018-12-25T02:52:41.472Z,86.57
2018-12-25T02:55:29.949Z,86.68
2018-12-25T02:58:10.697Z,86.68
2018-12-25T03:00:40.147Z,86.36
2018-12-25T03:03:09.606Z,86.40
2018-12-25T03:05:42.650Z,86.40
2018-12-25T03:08:12.177Z,86.36
2018-12-25T03:10:41.624Z,86.22
2018-12-25T03:13:11.075Z,86.10
2018-12-25T03:15:40.550Z,86.33
2018-12-25T03:18:09.988Z,86.34
2018-12-25T03:20:39.600Z,86.23
2018-12-25T03:23:09.279Z,86.23
2018-12-25T03:25:38.785Z,86.38
2018-12-25T03:28:16.373Z,86.38
2018-12-25T03:30:45.792Z,86.08
2018-12-25T03:33:15.419Z,86.11
2018-12-25T03:35:44.829Z,86.19
2018-12-25T03:38:14.587Z,86.07
2018-12-25T03:40:44.071Z,85.93
2018-12-25T03:43:13.545Z,85.98
2018-12-25T03:45:42.964Z,85.90
2018-12-25T03:48:12.478Z,85.93
2018-12-25T03:50:41.940Z,85.86
2018-12-25T03:53:11.330Z,85.78
2018-12-25T03:55:40.731Z,85.77
2018-12-25T03:58:10.454Z,85.72
2018-12-25T04:00:52.079Z,85.70
2018-12-25T04:03:22.306Z,85.77
2018-12-25T04:05:51.721Z,85.83
2018-12-25T04:08:21.163Z,85.94
2018-12-25T04:10:50.619Z,85.91
2018-12-25T04:13:20.785Z,85.85
2018-12-25T04:15:50.189Z,85.95
2018-12-25T04:18:19.651Z,85.74
2018-12-25T04:20:49.094Z,86.08
2018-12-25T04:23:22.398Z,86.08
2018-12-25T04:25:52.193Z,85.86
2018-12-25T04:28:22.141Z,85.76
2018-12-25T04:30:51.599Z,85.98
2018-12-25T04:33:22.555Z,86.02
2018-12-25T04:35:52.094Z,86.11
2018-12-25T04:38:24.818Z,86.14
2018-12-25T04:40:54.350Z,86.28
2018-12-25T04:43:23.878Z,86.18
2018-12-25T04:48:28.753Z,86.62
2018-12-25T04:50:58.325Z,86.66
2018-12-25T04:53:27.764Z,87.01
2018-12-25T04:58:45.717Z,86.91
2018-12-25T05:01:15.123Z,86.92
2018-12-25T05:03:44.674Z,87.12
2018-12-25T05:06:14.488Z,87.14
2018-12-25T05:08:43.901Z,87.37
2018-12-25T05:11:13.341Z,87.36
2018-12-25T05:13:42.871Z,87.41
2018-12-25T05:16:12.273Z,87.53
2018-12-25T05:18:41.662Z,87.61
2018-12-25T05:21:11.140Z,87.76
2018-12-25T05:23:40.571Z,87.80
2018-12-25T05:26:10.346Z,87.74
2018-12-25T05:28:39.885Z,87.86
2018-12-25T05:31:09.467Z,88.03
2018-12-25T05:33:38.948Z,88.18
2018-12-25T05:36:08.424Z,88.09
2018-12-25T05:38:37.947Z,88.19
2018-12-25T05:41:14.534Z,87.99
2018-12-25T05:43:44.029Z,87.98
2018-12-25T05:46:15.554Z,88.11
2018-12-25T05:48:44.955Z,87.95
2018-12-25T05:51:14.433Z,87.80
2018-12-25T05:53:43.862Z,87.64
2018-12-25T05:56:14.948Z,87.60
2018-12-25T05:58:44.665Z,87.40
2018-12-25T06:01:14.275Z,87.37
2018-12-25T06:06:20.731Z,87.38
2018-12-25T06:11:43.654Z,87.79
2018-12-25T06:14:13.333Z,87.98
2018-12-25T06:16:42.780Z,87.86
2018-12-25T06:19:12.275Z,87.80
2018-12-25T06:21:41.697Z,87.79
2018-12-25T06:24:11.129Z,87.97
2018-12-25T06:26:40.769Z,87.91
2018-12-25T06:29:10.154Z,87.82
2018-12-25T06:31:39.559Z,87.76
2018-12-25T06:34:09.177Z,87.87
2018-12-25T06:36:38.578Z,87.79
2018-12-25T06:39:08.927Z,87.74
2018-12-25T06:41:38.456Z,87.55
2018-12-25T06:44:07.972Z,87.58
2018-12-25T06:46:37.375Z,87.61
2018-12-25T06:49:07.011Z,87.34
2018-12-25T06:51:36.514Z,87.38
2018-12-25T06:54:08.723Z,87.15
2018-12-25T06:59:43.835Z,87.08
2018-12-25T07:02:13.809Z,87.15
2018-12-25T07:04:43.230Z,87.05
2018-12-25T07:07:12.799Z,86.90
2018-12-25T07:09:42.274Z,86.96
2018-12-25T07:12:11.712Z,86.82
2018-12-25T07:14:41.108Z,86.90
2018-12-25T07:17:10.559Z,86.82
2018-12-25T07:19:39.963Z,86.65
2018-12-25T07:22:09.468Z,86.47
2018-12-25T07:24:39.207Z,86.56
2018-12-25T07:27:11.425Z,86.69
2018-12-25T07:29:40.850Z,86.70
2018-12-25T07:32:10.570Z,86.50
2018-12-25T07:34:40.190Z,86.60
2018-12-25T07:37:09.925Z,86.44
2018-12-25T07:39:39.411Z,86.20
2018-12-25T07:42:08.935Z,85.71
2018-12-25T07:44:38.353Z,85.71
2018-12-25T07:47:08.011Z,86.11
2018-12-25T07:49:37.520Z,86.10
2018-12-25T07:52:07.054Z,86.34
2018-12-25T07:54:37.040Z,86.56
2018-12-25T07:57:06.472Z,86.51
2018-12-25T07:59:35.964Z,86.65
2018-12-25T08:02:05.634Z,86.52
2018-12-25T08:04:46.524Z,86.63
2018-12-25T08:07:16.416Z,86.61
2018-12-25T08:09:45.844Z,86.64
2018-12-25T08:12:15.326Z,86.64
2018-12-25T08:14:44.792Z,86.57
2018-12-25T08:17:14.320Z,86.60
2018-12-25T08:19:43.771Z,86.61
2018-12-25T08:22:32.734Z,87.02
2018-12-25T08:27:51.058Z,86.81
2018-12-25T08:30:20.470Z,86.78
2018-12-25T08:32:49.896Z,86.78
2018-12-25T08:35:19.352Z,86.71
2018-12-25T08:37:48.776Z,86.49
2018-12-25T08:40:18.202Z,86.31
2018-12-25T08:42:47.808Z,86.11
2018-12-25T08:45:17.317Z,86.06
2018-12-25T08:47:46.718Z,85.84
2018-12-25T08:50:16.309Z,85.71
2018-12-25T08:52:45.726Z,85.98
2018-12-25T08:55:15.146Z,85.80
2018-12-25T08:57:44.663Z,85.72
2018-12-25T09:00:14.789Z,85.44
2018-12-25T09:02:44.231Z,85.46
2018-12-25T09:05:13.786Z,85.31
2018-12-25T09:07:43.209Z,85.12
2018-12-25T09:10:12.688Z,84.59
2018-12-25T09:12:42.289Z,83.78
2018-12-25T09:15:11.725Z,83.78
2018-12-25T09:17:41.331Z,83.69
2018-12-25T09:20:10.791Z,83.14
2018-12-25T09:22:40.360Z,83.04
2018-12-25T09:25:10.852Z,82.87
2018-12-25T09:27:41.276Z,82.82
2018-12-25T09:30:11.220Z,82.91
2018-12-25T09:33:03.071Z,82.66
2018-12-25T09:35:32.566Z,83.11
2018-12-25T09:38:01.993Z,83.11
2018-12-25T09:40:31.666Z,82.89
2018-12-25T09:43:20.086Z,83.13
2018-12-25T09:45:49.543Z,83.13
2018-12-25T09:48:18.941Z,82.56
2018-12-25T09:51:07.430Z,82.36
2018-12-25T09:59:05.144Z,82.77
2018-12-25T10:01:46.166Z,82.92
2018-12-25T10:04:26.855Z,83.00
2018-12-25T10:06:59.279Z,82.84
2018-12-25T10:09:28.671Z,82.88
2018-12-25T10:11:58.244Z,82.91
2018-12-25T10:14:27.715Z,82.87
2018-12-25T10:17:16.277Z,82.78
2018-12-25T10:19:45.761Z,82.68
2018-12-25T10:22:15.184Z,82.59
2018-12-25T10:24:44.583Z,82.40
2018-12-25T10:29:48.508Z,82.02
2018-12-25T10:32:18.077Z,81.78
2018-12-25T10:34:47.512Z,81.68
2018-12-25T10:37:16.950Z,81.70
2018-12-25T10:40:05.808Z,81.71
2018-12-25T10:42:46.377Z,81.71
2018-12-25T10:45:15.805Z,81.56
2018-12-25T10:47:45.259Z,81.58
2018-12-25T10:50:14.733Z,81.56
2018-12-25T10:52:44.394Z,81.56
2018-12-25T10:55:13.832Z,81.29
2018-12-25T10:57:43.342Z,81.13
2018-12-25T11:00:14.460Z,80.92
2018-12-25T11:03:02.810Z,80.92
2018-12-25T11:05:51.644Z,80.98
2018-12-25T11:08:21.677Z,80.98
2018-12-25T11:10:51.118Z,80.70
2018-12-25T11:13:21.012Z,80.65
2018-12-25T11:15:50.413Z,80.50
2018-12-25T11:18:20.275Z,80.37
2018-12-25T11:20:49.713Z,80.48
2018-12-25T11:23:19.218Z,80.48
2018-12-25T11:25:48.671Z,80.25
2018-12-25T11:28:18.790Z,80.04
2018-12-25T11:30:48.209Z,80.14
2018-12-25T11:33:17.829Z,80.16
2018-12-25T11:35:47.344Z,80.04
2018-12-25T11:38:17.150Z,80.15
2018-12-25T11:43:35.067Z,80.08
2018-12-25T11:46:04.514Z,79.81
2018-12-25T11:48:52.983Z,79.86
2018-12-25T11:51:22.624Z,79.83
2018-12-25T11:53:52.094Z,79.57
2018-12-25T11:56:21.713Z,79.39
2018-12-25T11:58:51.173Z,79.39
2018-12-25T12:01:20.661Z,79.12
2018-12-25T12:03:50.199Z,79.12
2018-12-25T12:06:27.043Z,78.87
2018-12-25T12:08:56.806Z,78.68
2018-12-25T12:11:26.659Z,78.50
2018-12-25T12:13:56.236Z,78.52
2018-12-25T12:16:25.951Z,78.51
2018-12-25T12:21:44.176Z,77.65
2018-12-25T12:24:13.669Z,77.38
2018-12-25T12:26:43.170Z,77.06
2018-12-25T12:29:12.776Z,77.16
2018-12-25T12:31:42.218Z,77.47
2018-12-25T12:34:14.475Z,77.60
2018-12-25T12:36:43.922Z,77.64
2018-12-25T12:39:13.362Z,77.56
2018-12-25T12:41:42.813Z,77.50
2018-12-25T12:44:12.323Z,77.52
2018-12-25T12:46:41.748Z,77.09
2018-12-25T12:49:11.256Z,77.02
2018-12-25T12:54:16.135Z,76.82
2018-12-25T12:56:57.884Z,76.66
2018-12-25T12:59:27.322Z,76.76
2018-12-25T13:01:57.919Z,76.75
2018-12-25T13:04:27.331Z,76.46
2018-12-25T13:06:56.838Z,76.68
2018-12-25T13:09:45.502Z,76.90
2018-12-25T13:12:15.501Z,76.85
2018-12-25T13:14:44.932Z,77.04
2018-12-25T13:17:14.470Z,77.16
2018-12-25T13:19:43.927Z,77.18
2018-12-25T13:22:13.409Z,77.32
2018-12-25T13:24:51.591Z,77.26
2018-12-25T13:27:21.037Z,77.49
2018-12-25T13:29:50.490Z,77.67
2018-12-25T13:34:57.666Z,78.12
2018-12-25T13:37:28.287Z,78.29
2018-12-25T13:39:57.948Z,78.45
2018-12-25T13:42:27.420Z,78.62
2018-12-25T13:44:57.124Z,78.62
2018-12-25T13:47:45.698Z,78.85
2018-12-25T13:52:50.248Z,79.09
2018-12-25T13:55:19.815Z,79.19
2018-12-25T13:57:49.286Z,79.26
2018-12-25T14:00:18.804Z,79.46
2018-12-25T14:02:48.689Z,79.57
2018-12-25T14:05:18.114Z,79.77
2018-12-25T14:07:47.873Z,80.03
2018-12-25T14:10:17.288Z,80.03
2018-12-25T14:12:46.703Z,80.10
2018-12-25T14:15:16.156Z,80.16
2018-12-25T14:18:01.525Z,80.46
2018-12-25T14:20:30.023Z,80.46
2018-12-25T14:23:11.561Z,80.46
2018-12-25T14:25:49.114Z,80.55
2018-12-25T14:28:18.554Z,80.65
2018-12-25T14:30:48.067Z,80.60
2018-12-25T14:33:17.539Z,80.50
2018-12-25T14:35:46.975Z,80.57
2018-12-25T14:38:16.375Z,80.57
2018-12-25T14:40:45.870Z,80.59
2018-12-25T14:46:04.394Z,80.54
2018-12-25T14:48:33.989Z,80.55
2018-12-25T14:51:03.537Z,80.49
2018-12-25T14:53:33.312Z,80.50
2018-12-25T14:56:02.829Z,80.53
2018-12-25T14:58:32.456Z,80.60
2018-12-25T15:01:01.924Z,80.80
2018-12-25T15:03:31.341Z,80.91
2018-12-25T15:08:55.384Z,80.51
2018-12-25T15:16:55.012Z,81.15
2018-12-25T15:19:24.647Z,81.39
2018-12-25T15:21:56.092Z,81.49
2018-12-25T15:27:00.673Z,81.80
2018-12-25T15:29:42.453Z,81.81
2018-12-25T15:34:47.375Z,81.86
2018-12-25T15:37:16.888Z,81.92
2018-12-25T15:39:46.464Z,81.78
2018-12-25T15:42:15.910Z,81.80
2018-12-25T15:44:45.729Z,81.80
2018-12-25T15:47:37.164Z,81.59
2018-12-25T15:50:07.388Z,81.60
2018-12-25T15:52:36.933Z,81.66
2018-12-25T15:55:07.958Z,81.66
2018-12-25T15:57:37.541Z,81.81
2018-12-25T16:00:26.088Z,81.73
2018-12-25T16:03:07.837Z,81.73
2018-12-25T16:05:40.021Z,81.71
2018-12-25T16:08:09.678Z,81.71
2018-12-25T16:10:39.370Z,81.85
2018-12-25T16:13:10.858Z,81.87
2018-12-25T16:15:40.332Z,81.87
2018-12-25T16:18:09.897Z,82.06
2018-12-25T16:20:39.313Z,82.08
2018-12-25T16:23:08.832Z,82.29
2018-12-25T16:28:14.578Z,82.53
2018-12-25T16:30:44.154Z,82.72
2018-12-25T16:33:13.580Z,82.77
2018-12-25T16:35:43.025Z,82.88
2018-12-25T16:38:12.427Z,82.87
2018-12-25T16:40:41.859Z,82.90
2018-12-25T16:43:11.396Z,82.91
2018-12-25T16:45:41.042Z,82.85
2018-12-25T16:48:10.471Z,82.27
2018-12-25T16:50:40.276Z,82.27
2018-12-25T16:53:11.651Z,82.37
2018-12-25T16:55:41.346Z,82.11
2018-12-25T17:00:45.888Z,81.82
2018-12-25T17:05:50.560Z,81.68
2018-12-25T17:08:32.672Z,81.65
2018-12-25T17:11:02.745Z,80.86
2018-12-25T17:13:32.256Z,80.86
2018-12-25T17:16:01.787Z,81.04
2018-12-25T17:18:31.225Z,80.91
2018-12-25T17:21:00.698Z,80.87
2018-12-25T17:23:49.193Z,80.62
2018-12-25T17:26:29.777Z,80.62
2018-12-25T17:28:59.258Z,81.39
2018-12-25T17:31:28.698Z,81.39
2018-12-25T17:33:58.144Z,81.24
2018-12-25T17:36:27.579Z,81.49
2018-12-25T17:38:57.237Z,81.58
2018-12-25T17:41:26.762Z,81.76
2018-12-25T17:43:56.517Z,81.85
2018-12-25T17:46:26.020Z,81.88
2018-12-25T17:48:57.560Z,81.98
2018-12-25T17:51:27.115Z,81.85
2018-12-25T17:53:56.625Z,82.61
2018-12-25T17:56:26.263Z,82.61
2018-12-25T17:58:55.978Z,82.27
2018-12-25T18:01:25.385Z,82.32
2018-12-25T18:03:54.953Z,82.32
2018-12-25T18:09:07.342Z,82.13
2018-12-25T18:11:55.868Z,81.82
2018-12-25T18:14:37.118Z,81.71
2018-12-25T18:17:06.561Z,81.53
2018-12-25T18:19:36.053Z,81.53
2018-12-25T18:22:05.785Z,81.67
2018-12-25T18:24:35.371Z,81.80
2018-12-25T18:27:04.816Z,81.80
2018-12-25T18:29:34.356Z,82.11
2018-12-25T18:32:04.980Z,82.04
2018-12-25T18:34:53.794Z,81.65
2018-12-25T18:37:35.051Z,81.65
2018-12-25T18:40:04.653Z,82.18
2018-12-25T18:42:34.157Z,82.18
2018-12-25T18:45:22.608Z,82.00
2018-12-25T18:47:52.085Z,82.00
2018-12-25T18:50:21.536Z,81.64
2018-12-25T18:52:51.232Z,81.75
2018-12-25T18:55:40.453Z,81.63
2018-12-25T18:58:10.001Z,81.63
2018-12-25T19:00:39.583Z,81.72
2018-12-25T19:03:09.197Z,81.56
2018-12-25T19:05:38.770Z,81.56
2018-12-25T19:08:08.404Z,81.82
2018-12-25T19:10:38.070Z,81.82
2018-12-25T19:13:10.613Z,82.03
2018-12-25T19:15:43.179Z,82.09
2018-12-25T19:18:13.865Z,82.26
2018-12-25T19:23:18.621Z,82.39
2018-12-25T19:25:59.769Z,82.20
2018-12-25T19:28:48.145Z,82.20
2018-12-25T19:34:35.980Z,82.11
2018-12-25T19:37:29.354Z,82.11
2018-12-25T19:39:58.905Z,81.79
2018-12-25T19:42:28.336Z,81.63
2018-12-25T19:44:58.000Z,81.54
2018-12-25T19:47:27.466Z,81.25
2018-12-25T19:49:57.010Z,81.25
2018-12-25T19:52:26.424Z,81.50
2018-12-25T19:54:56.684Z,81.44
2018-12-25T19:57:26.311Z,81.34
2018-12-25T19:59:57.141Z,81.25
2018-12-25T20:02:29.111Z,81.21
2018-12-25T20:05:36.875Z,81.11
2018-12-25T20:11:51.203Z,80.90
2018-12-25T20:14:58.696Z,80.83
2018-12-25T20:18:06.156Z,80.87
2018-12-25T20:21:16.387Z,80.96
2018-12-25T20:27:40.360Z,81.12
2018-12-25T20:30:47.734Z,80.95
2018-12-25T20:33:56.487Z,81.16
2018-12-25T20:37:02.955Z,81.16
2018-12-25T20:40:16.196Z,81.58
2018-12-25T20:43:24.513Z,81.58
2018-12-25T20:46:43.895Z,81.36
2018-12-25T20:49:51.272Z,81.48
2018-12-25T20:52:59.034Z,81.62
2018-12-25T20:56:06.824Z,81.76
2018-12-25T20:59:23.420Z,81.86
2018-12-25T21:02:43.178Z,82.06
2018-12-25T21:05:50.957Z,82.22
2018-12-25T21:08:58.474Z,82.33
2018-12-25T21:11:39.561Z,82.41
2018-12-25T21:14:46.916Z,82.47
2018-12-25T21:17:54.292Z,82.49
2018-12-25T21:21:01.749Z,82.54
2018-12-25T21:23:42.393Z,82.46
2018-12-25T21:26:50.335Z,82.46
2018-12-25T21:29:19.789Z,82.52
2018-12-25T21:31:49.241Z,82.69
2018-12-25T21:37:15.041Z,82.96
2018-12-25T21:39:44.742Z,83.00
2018-12-25T21:42:53.542Z,83.11
2018-12-25T21:45:23.226Z,83.17
2018-12-25T21:47:54.204Z,83.09
2018-12-25T21:50:24.093Z,83.11
2018-12-25T21:52:54.415Z,83.06
2018-12-25T21:55:24.143Z,83.01
2018-12-25T21:57:54.731Z,83.07
2018-12-25T22:00:26.898Z,83.13
2018-12-25T22:02:56.469Z,83.29
2018-12-25T22:05:26.206Z,83.40
2018-12-25T22:07:55.640Z,83.37
2018-12-25T22:10:25.115Z,83.48
2018-12-25T22:15:31.023Z,84.16
2018-12-25T22:20:46.132Z,84.33
2018-12-25T22:26:11.380Z,83.97
2018-12-25T22:28:46.993Z,83.89
2018-12-25T22:31:16.450Z,83.74
2018-12-25T22:33:45.873Z,83.44
2018-12-25T22:36:15.299Z,83.45
2018-12-25T22:38:44.763Z,83.47
2018-12-25T22:41:14.184Z,83.60
2018-12-25T22:43:46.273Z,83.61
2018-12-25T22:46:15.680Z,83.66
2018-12-25T22:48:45.106Z,83.75
2018-12-25T22:51:14.536Z,83.87
2018-12-25T22:53:44.103Z,84.06
2018-12-25T22:59:12.927Z,84.17
2018-12-25T23:01:42.690Z,84.33
2018-12-25T23:04:12.271Z,84.48
2018-12-25T23:06:42.081Z,84.38
2018-12-25T23:09:11.695Z,84.17
2018-12-25T23:11:41.310Z,84.19
2018-12-25T23:14:10.828Z,84.17
2018-12-25T23:16:40.307Z,84.26
2018-12-25T23:19:09.834Z,84.17
2018-12-25T23:21:39.354Z,84.12
2018-12-25T23:24:27.681Z,84.04
2018-12-25T23:27:08.532Z,83.94
2018-12-25T23:29:54.181Z,83.82
2018-12-25T23:32:23.340Z,83.77
2018-12-25T23:34:52.761Z,83.61
2018-12-25T23:37:22.159Z,83.44
2018-12-25T23:39:52.228Z,83.28
2018-12-25T23:42:21.627Z,83.14
2018-12-25T23:44:55.347Z,82.96
2018-12-25T23:47:24.787Z,82.86
2018-12-25T23:49:54.230Z,82.81
2018-12-25T23:52:23.686Z,82.77
2018-12-25T23:54:53.273Z,82.74
2018-12-25T23:57:22.691Z,82.65
2018-12-25T23:59:52.126Z,82.54
